Time;durP1;ratioP1;P1;durP2;ratioP2;P2;SDS_P1;SDS_P2;PMS_P1;PMS_P2;Temp;Humidity;BMP_temperature;BMP_pressure;BME280_temperature;BME280_humidity;BME280_pressure;Samples;Min_cycle;Max_cycle;Signal;HPM_P1;HPM_P2
2022/04/03 00:00:10;;;;;;;7.23;5.70;;;2.90;99.90;;;;;;5049751;28;20240;-70
2022/04/03 00:02:38;;;;;;;7.17;5.63;;;2.90;99.90;;;;;;5050229;28;20202;-74
2022/04/03 00:05:06;;;;;;;7.67;6.00;;;2.90;99.90;;;;;;5050190;28;20237;-71
2022/04/03 00:07:33;;;;;;;8.80;5.80;;;2.90;99.90;;;;;;5049070;28;20240;-72
2022/04/03 00:10:00;;;;;;;6.87;5.87;;;2.90;99.90;;;;;;5050182;28;20237;-71
2022/04/03 00:12:27;;;;;;;6.13;5.53;;;2.90;99.90;;;;;;5049999;28;20244;-72
2022/04/03 00:14:54;;;;;;;7.00;5.83;;;2.90;99.90;;;;;;5049715;28;20205;-72
2022/04/03 00:17:21;;;;;;;8.20;6.30;;;2.90;99.90;;;;;;5049570;28;20247;-70
2022/04/03 00:19:49;;;;;;;9.07;6.80;;;2.90;99.90;;;;;;5049341;28;20225;-71
2022/04/03 00:22:16;;;;;;;8.43;6.83;;;2.90;99.90;;;;;;5049498;28;20288;-72
2022/04/03 00:24:43;;;;;;;9.33;7.50;;;2.90;99.90;;;;;;5049788;28;20244;-70
2022/04/03 00:27:10;;;;;;;9.13;7.03;;;2.90;99.90;;;;;;5049844;28;20321;-71
2022/04/03 00:29:37;;;;;;;8.33;7.00;;;2.90;99.90;;;;;;5049735;28;20522;-71
2022/04/03 00:32:05;;;;;;;8.93;7.03;;;2.90;99.90;;;;;;5049353;28;20257;-71
2022/04/03 00:34:32;;;;;;;8.80;6.50;;;2.90;99.90;;;;;;5049877;28;20623;-71
2022/04/03 00:37:00;;;;;;;8.47;6.87;;;2.90;99.90;;;;;;5049448;28;20201;-72
2022/04/03 00:39:27;;;;;;;8.83;7.10;;;2.90;99.90;;;;;;5048877;28;20237;-70
2022/04/03 00:41:55;;;;;;;8.83;7.00;;;2.80;99.90;;;;;;5049452;28;20241;-73
2022/04/03 00:44:24;;;;;;;8.57;7.33;;;2.80;99.90;;;;;;5049184;28;20208;-71
2022/04/03 00:46:52;;;;;;;9.07;6.90;;;2.90;99.90;;;;;;5048661;28;20261;-71
2022/04/03 00:49:19;;;;;;;9.07;6.80;;;2.90;99.90;;;;;;5049091;28;20241;-71
2022/04/03 00:51:45;;;;;;;8.90;7.23;;;2.90;99.90;;;;;;5049482;28;20209;-71
2022/04/03 00:54:14;;;;;;;9.40;7.63;;;2.90;99.90;;;;;;5049444;28;20682;-71
2022/04/03 00:56:41;;;;;;;9.10;7.13;;;2.80;99.90;;;;;;5049512;28;20710;-71
2022/04/03 00:59:09;;;;;;;9.07;7.10;;;2.80;99.90;;;;;;5049551;28;20623;-71
2022/04/03 01:01:37;;;;;;;8.70;7.13;;;2.80;99.90;;;;;;5049721;28;20659;-71
2022/04/03 01:04:04;;;;;;;7.50;6.70;;;2.80;99.90;;;;;;5049109;28;20682;-71
2022/04/03 01:06:32;;;;;;;8.83;6.93;;;2.80;99.90;;;;;;5049064;28;20226;-71
2022/04/03 01:08:59;;;;;;;9.30;7.07;;;2.80;99.90;;;;;;5049282;28;20209;-71
2022/04/03 01:11:28;;;;;;;8.90;7.40;;;2.80;99.90;;;;;;5048684;28;20256;-70
2022/04/03 01:13:55;;;;;;;9.73;6.90;;;2.80;99.90;;;;;;5049155;28;20206;-71
2022/04/03 01:16:22;;;;;;;10.00;7.73;;;2.70;99.90;;;;;;5048492;28;20241;-71
2022/04/03 01:18:49;;;;;;;7.57;6.40;;;2.70;99.90;;;;;;5050976;28;20241;-71
2022/04/03 01:21:18;;;;;;;8.23;6.70;;;2.70;99.90;;;;;;5052324;28;20277;-71
2022/04/03 01:23:46;;;;;;;7.33;6.27;;;2.70;99.90;;;;;;5052355;28;20678;-70
2022/04/03 01:26:15;;;;;;;8.33;6.50;;;2.80;99.90;;;;;;5052202;28;20229;-71
2022/04/03 01:28:42;;;;;;;9.37;7.03;;;2.70;99.90;;;;;;5052317;28;20638;-71
2022/04/03 01:31:09;;;;;;;8.50;6.83;;;2.80;99.90;;;;;;5051889;28;20241;-71
2022/04/03 01:33:36;;;;;;;10.00;7.23;;;2.80;99.90;;;;;;5051850;28;20209;-71
2022/04/03 01:36:03;;;;;;;9.77;7.07;;;2.80;99.90;;;;;;5051906;28;20201;-71
2022/04/03 01:38:30;;;;;;;8.80;7.27;;;2.80;99.90;;;;;;5051701;28;20659;-70
2022/04/03 01:40:57;;;;;;;9.87;7.40;;;2.80;99.90;;;;;;5051925;28;20201;-71
2022/04/03 01:43:25;;;;;;;8.90;7.10;;;2.80;99.90;;;;;;5052141;28;20684;-71
2022/04/03 01:45:52;;;;;;;8.63;7.23;;;2.80;99.90;;;;;;5051977;28;20241;-71
2022/04/03 01:48:19;;;;;;;8.30;6.90;;;2.70;99.90;;;;;;5051743;28;20735;-70
2022/04/03 01:50:48;;;;;;;8.27;6.80;;;2.70;99.90;;;;;;5051675;28;20682;-70
2022/04/03 01:53:15;;;;;;;8.57;6.70;;;2.70;99.90;;;;;;5051333;28;20244;-71
2022/04/03 01:55:42;;;;;;;8.67;6.57;;;2.80;99.90;;;;;;5051551;28;20241;-71
2022/04/03 01:58:09;;;;;;;7.63;5.97;;;2.70;99.90;;;;;;5051647;28;20234;-71
2022/04/03 02:00:39;;;;;;;9.03;6.87;;;2.70;99.90;;;;;;5051331;28;20209;-70
2022/04/03 02:03:06;;;;;;;8.63;6.73;;;2.70;99.90;;;;;;5051261;28;20242;-70
2022/04/03 02:05:33;;;;;;;8.40;6.50;;;2.70;99.90;;;;;;5051721;28;20292;-70
2022/04/03 02:08:00;;;;;;;9.43;6.90;;;2.70;99.90;;;;;;5051235;28;20268;-71
2022/04/03 02:10:27;;;;;;;7.07;6.10;;;2.70;99.90;;;;;;5051458;28;20696;-71
2022/04/03 02:12:54;;;;;;;8.13;6.03;;;2.70;99.90;;;;;;5051408;28;20236;-70
2022/04/03 02:15:21;;;;;;;7.93;6.17;;;2.70;99.90;;;;;;5051669;28;20237;-70
2022/04/03 02:17:49;;;;;;;9.73;6.57;;;2.70;99.90;;;;;;5051847;28;20702;-70
2022/04/03 02:20:16;;;;;;;8.03;5.87;;;2.70;99.90;;;;;;5051315;28;20221;-70
2022/04/03 02:22:43;;;;;;;6.57;5.87;;;2.70;99.90;;;;;;5051790;28;20244;-71
2022/04/03 02:25:11;;;;;;;7.87;6.67;;;2.70;99.90;;;;;;5051597;28;20297;-70
2022/04/03 02:27:39;;;;;;;9.50;6.67;;;2.70;99.90;;;;;;5051370;28;20631;-70
2022/04/03 02:30:09;;;;;;;7.70;6.50;;;2.60;99.90;;;;;;5049959;28;20221;-71
2022/04/03 02:32:37;;;;;;;8.63;6.70;;;2.60;99.90;;;;;;5051084;28;20194;-71
2022/04/03 02:35:07;;;;;;;8.30;6.63;;;2.60;99.90;;;;;;5051287;28;20543;-70
2022/04/03 02:37:34;;;;;;;8.67;6.60;;;2.60;99.90;;;;;;5050702;28;20241;-70
2022/04/03 02:40:02;;;;;;;9.33;7.27;;;2.60;99.90;;;;;;5051103;28;20635;-71
2022/04/03 02:42:29;;;;;;;8.37;7.27;;;2.50;99.90;;;;;;5051054;28;20233;-71
2022/04/03 02:44:56;;;;;;;10.57;7.17;;;2.50;99.90;;;;;;5050608;28;20241;-71
2022/04/03 02:47:23;;;;;;;9.43;7.37;;;2.50;99.90;;;;;;5050800;28;20260;-71
2022/04/03 02:49:51;;;;;;;11.27;8.10;;;2.40;99.90;;;;;;5050934;28;20557;-70
2022/04/03 02:52:20;;;;;;;10.10;7.80;;;2.40;99.90;;;;;;5051017;28;20723;-71
2022/04/03 02:54:47;;;;;;;10.47;7.93;;;2.40;99.90;;;;;;5050903;28;20274;-70
2022/04/03 02:57:15;;;;;;;9.17;7.37;;;2.40;99.90;;;;;;5050649;28;20296;-71
2022/04/03 02:59:42;;;;;;;10.80;8.07;;;2.40;99.90;;;;;;5050782;28;20206;-71
2022/04/03 03:02:10;;;;;;;10.50;7.87;;;2.50;99.90;;;;;;5050749;28;20292;-71
2022/04/03 03:04:37;;;;;;;11.77;8.43;;;2.60;99.90;;;;;;5051051;28;20205;-70
2022/04/03 03:07:05;;;;;;;9.37;7.73;;;2.60;99.90;;;;;;5050401;28;20229;-71
2022/04/03 03:09:33;;;;;;;10.83;7.83;;;2.50;99.90;;;;;;5050306;28;20241;-70
2022/04/03 03:12:01;;;;;;;11.30;8.70;;;2.50;99.90;;;;;;5050664;28;20285;-71
2022/04/03 03:14:28;;;;;;;11.37;8.50;;;2.50;99.90;;;;;;5050411;28;20241;-71
2022/04/03 03:16:56;;;;;;;11.07;8.80;;;2.50;99.90;;;;;;5050173;28;20248;-71
2022/04/03 03:19:23;;;;;;;10.53;8.10;;;2.40;99.90;;;;;;5050427;28;20263;-71
2022/04/03 03:21:50;;;;;;;10.57;8.60;;;2.40;99.90;;;;;;5050359;28;20248;-70
2022/04/03 03:24:16;;;;;;;10.93;8.37;;;2.30;99.90;;;;;;5050242;28;20251;-71
2022/04/03 03:26:45;;;;;;;10.47;8.37;;;2.30;99.90;;;;;;5049987;28;20321;-71
2022/04/03 03:29:12;;;;;;;11.53;8.37;;;2.30;99.90;;;;;;5050471;28;20209;-71
2022/04/03 03:31:39;;;;;;;11.87;8.70;;;2.30;99.90;;;;;;5050140;28;20227;-70
2022/04/03 03:34:05;;;;;;;10.17;8.33;;;2.40;99.90;;;;;;5050177;28;20244;-70
2022/04/03 03:36:32;;;;;;;12.27;8.27;;;2.40;99.90;;;;;;5050176;28;20320;-70
2022/04/03 03:38:59;;;;;;;10.13;8.20;;;2.40;99.90;;;;;;5049593;28;20276;-71
2022/04/03 03:41:26;;;;;;;11.23;8.67;;;2.40;99.90;;;;;;5050022;28;20706;-70
2022/04/03 03:43:54;;;;;;;9.80;7.97;;;2.40;99.90;;;;;;5049893;28;20607;-70
2022/04/03 03:46:21;;;;;;;10.40;8.40;;;2.50;99.90;;;;;;5050084;28;20662;-71
2022/04/03 03:48:48;;;;;;;10.57;8.00;;;2.40;99.90;;;;;;5049841;28;20712;-70
2022/04/03 03:51:15;;;;;;;9.73;7.87;;;2.50;99.90;;;;;;5050098;28;20241;-71
2022/04/03 03:53:42;;;;;;;11.90;8.70;;;2.40;99.90;;;;;;5049953;28;20342;-71
2022/04/03 03:56:09;;;;;;;12.73;8.73;;;2.50;99.90;;;;;;5049622;28;20293;-71
2022/04/03 03:58:36;;;;;;;10.40;7.70;;;2.50;99.90;;;;;;5049729;28;20248;-70
2022/04/03 04:01:04;;;;;;;10.47;8.47;;;2.50;99.90;;;;;;5049679;28;20639;-70
2022/04/03 04:03:31;;;;;;;9.90;8.23;;;2.40;99.90;;;;;;5049513;28;20251;-71
2022/04/03 04:05:58;;;;;;;12.50;9.03;;;2.50;99.90;;;;;;5049307;28;20646;-70
2022/04/03 04:08:25;;;;;;;9.93;8.03;;;2.40;99.90;;;;;;5049556;28;20312;-70
2022/04/03 04:10:51;;;;;;;11.50;8.73;;;2.40;99.90;;;;;;5049613;28;20698;-70
2022/04/03 04:13:19;;;;;;;11.57;8.87;;;2.50;99.90;;;;;;5049547;28;20641;-69
2022/04/03 04:15:46;;;;;;;12.07;8.70;;;2.50;99.90;;;;;;5049124;28;20213;-71
2022/04/03 04:18:14;;;;;;;11.03;8.90;;;2.50;99.90;;;;;;5049711;28;20743;-70
2022/04/03 04:20:41;;;;;;;11.50;8.90;;;2.30;99.90;;;;;;5049491;28;20264;-72
2022/04/03 04:23:09;;;;;;;11.60;9.00;;;2.30;99.90;;;;;;5049922;28;20245;-69
2022/04/03 04:25:36;;;;;;;12.27;8.93;;;2.30;99.90;;;;;;5049384;28;20210;-71
2022/04/03 04:28:03;;;;;;;11.23;8.57;;;2.40;99.90;;;;;;5049267;28;20252;-71
2022/04/03 04:30:30;;;;;;;11.43;8.87;;;2.40;99.90;;;;;;5049204;28;20209;-70
2022/04/03 04:32:57;;;;;;;11.60;8.70;;;2.40;99.90;;;;;;5049269;28;20640;-71
2022/04/03 04:35:25;;;;;;;12.63;9.00;;;2.50;99.90;;;;;;5049453;28;20259;-71
2022/04/03 04:37:52;;;;;;;12.17;9.13;;;2.60;99.90;;;;;;5048879;28;20276;-70
2022/04/03 04:40:19;;;;;;;13.97;9.63;;;2.50;99.90;;;;;;5049337;28;20637;-71
2022/04/03 04:42:47;;;;;;;13.00;9.73;;;2.50;99.90;;;;;;5049077;28;20266;-71
2022/04/03 04:45:15;;;;;;;12.17;9.13;;;2.60;99.90;;;;;;5048937;28;20206;-71
2022/04/03 04:47:43;;;;;;;13.20;9.33;;;2.60;99.90;;;;;;5049024;28;20322;-71
2022/04/03 04:50:11;;;;;;;10.97;8.67;;;2.60;99.90;;;;;;5049058;28;20244;-70
2022/04/03 04:52:40;;;;;;;12.20;9.40;;;2.60;99.90;;;;;;5047898;28;20293;-71
2022/04/03 04:55:08;;;;;;;12.03;9.20;;;2.70;99.90;;;;;;5048737;28;20243;-71
2022/04/03 04:57:36;;;;;;;14.13;10.10;;;2.70;99.90;;;;;;5048842;28;20237;-70
2022/04/03 05:00:07;;;;;;;12.53;10.00;;;2.80;99.90;;;;;;5049159;28;20241;-71
2022/04/03 05:02:34;;;;;;;12.40;9.50;;;2.80;99.90;;;;;;5048664;28;20250;-71
2022/04/03 05:05:01;;;;;;;13.03;9.43;;;2.80;99.90;;;;;;5048911;28;20249;-70
2022/04/03 05:07:28;;;;;;;13.80;10.13;;;2.70;99.90;;;;;;5049061;28;20639;-71
2022/04/03 05:09:57;;;;;;;16.07;10.70;;;2.70;99.90;;;;;;5049099;28;20706;-71
2022/04/03 05:12:24;;;;;;;14.80;9.97;;;2.80;99.90;;;;;;5048696;28;20251;-70
2022/04/03 05:14:51;;;;;;;15.50;10.00;;;2.80;99.90;;;;;;5048422;28;20297;-70
2022/04/03 05:17:18;;;;;;;15.00;10.53;;;2.80;99.90;;;;;;5048839;28;20197;-72
2022/04/03 05:19:45;;;;;;;13.87;10.73;;;2.80;99.90;;;;;;5048740;28;20263;-71
2022/04/03 05:22:12;;;;;;;16.67;10.53;;;2.80;99.90;;;;;;5049061;28;20311;-70
2022/04/03 05:24:39;;;;;;;14.20;10.03;;;2.90;99.90;;;;;;5048684;28;20764;-70
2022/04/03 05:27:07;;;;;;;15.10;10.77;;;2.90;99.90;;;;;;5048438;28;20205;-71
2022/04/03 05:29:35;;;;;;;14.27;10.37;;;2.90;99.90;;;;;;5048330;28;20654;-70
2022/04/03 05:32:02;;;;;;;18.93;11.20;;;2.90;99.90;;;;;;5048627;28;20228;-71
2022/04/03 05:34:29;;;;;;;18.00;13.10;;;3.00;99.90;;;;;;5049131;28;20666;-72
2022/04/03 05:36:56;;;;;;;17.63;11.77;;;2.90;99.90;;;;;;5048474;28;20300;-70
2022/04/03 05:39:23;;;;;;;16.70;11.43;;;2.90;99.90;;;;;;5048618;28;20319;-71
2022/04/03 05:41:54;;;;;;;17.93;11.63;;;2.90;99.90;;;;;;5048600;28;20233;-71
2022/04/03 05:44:22;;;;;;;16.20;11.17;;;2.80;99.90;;;;;;5049059;28;20686;-72
2022/04/03 05:46:50;;;;;;;17.33;11.53;;;2.80;99.90;;;;;;5048951;28;20208;-72
2022/04/03 05:49:17;;;;;;;15.60;10.97;;;2.80;99.90;;;;;;5048719;28;20316;-71
2022/04/03 05:51:44;;;;;;;12.63;10.27;;;2.80;99.90;;;;;;5047851;28;20661;-71
2022/04/03 05:54:11;;;;;;;15.97;10.67;;;2.80;99.90;;;;;;5048261;28;20251;-71
2022/04/03 05:56:38;;;;;;;14.73;10.63;;;2.70;99.90;;;;;;5047921;28;20202;-75
2022/04/03 05:59:05;;;;;;;14.33;10.43;;;2.70;99.90;;;;;;5048521;28;20606;-71
2022/04/03 06:01:34;;;;;;;13.07;9.57;;;2.70;99.90;;;;;;5048291;28;20672;-71
2022/04/03 06:04:01;;;;;;;17.10;10.33;;;2.70;99.90;;;;;;5048001;28;20213;-71
2022/04/03 06:06:27;;;;;;;13.30;9.23;;;2.80;99.90;;;;;;5050615;28;20260;-72
2022/04/03 06:08:54;;;;;;;12.60;8.67;;;2.80;99.90;;;;;;5051471;28;20261;-70
2022/04/03 06:11:21;;;;;;;12.10;9.17;;;2.70;99.90;;;;;;5051546;28;20629;-71
2022/04/03 06:13:48;;;;;;;15.23;8.93;;;2.70;99.90;;;;;;5051537;28;20247;-72
2022/04/03 06:16:15;;;;;;;11.97;8.80;;;2.70;99.90;;;;;;5051279;28;20292;-70
2022/04/03 06:18:43;;;;;;;12.13;8.60;;;2.70;99.90;;;;;;5050878;28;20233;-71
2022/04/03 06:21:10;;;;;;;13.63;9.03;;;2.80;99.90;;;;;;5051189;28;20229;-71
2022/04/03 06:23:37;;;;;;;11.77;8.33;;;2.70;99.90;;;;;;5051086;28;20206;-71
2022/04/03 06:26:04;;;;;;;10.07;7.77;;;2.60;99.90;;;;;;5051645;28;20786;-70
2022/04/03 06:28:32;;;;;;;10.67;8.23;;;2.60;99.90;;;;;;5051447;28;20681;-72
2022/04/03 06:30:59;;;;;;;12.97;8.60;;;2.60;99.90;;;;;;5051000;28;20586;-71
2022/04/03 06:33:27;;;;;;;14.07;9.47;;;2.70;99.90;;;;;;5051073;28;20205;-71
2022/04/03 06:35:56;;;;;;;14.37;9.63;;;2.80;99.90;;;;;;5050973;28;20296;-71
2022/04/03 06:38:23;;;;;;;10.93;7.97;;;2.80;99.90;;;;;;5050864;28;20665;-71
2022/04/03 06:40:52;;;;;;;10.70;8.10;;;2.70;99.90;;;;;;5050995;28;20292;-71
2022/04/03 06:43:20;;;;;;;11.03;8.50;;;2.70;99.90;;;;;;5050535;28;20201;-70
2022/04/03 06:45:48;;;;;;;11.27;8.33;;;2.70;99.90;;;;;;5050653;28;20241;-71
2022/04/03 06:48:15;;;;;;;11.27;7.97;;;2.80;99.90;;;;;;5050833;28;20308;-71
2022/04/03 06:50:42;;;;;;;13.17;7.87;;;2.70;99.90;;;;;;5051002;28;20303;-71
2022/04/03 06:53:12;;;;;;;10.43;7.30;;;2.70;99.90;;;;;;5050685;28;20217;-71
2022/04/03 06:55:39;;;;;;;9.47;6.97;;;2.60;99.90;;;;;;5050728;28;20240;-70
2022/04/03 06:58:07;;;;;;;12.50;8.23;;;2.60;99.90;;;;;;5050401;28;20296;-71
2022/04/03 07:00:37;;;;;;;11.47;8.43;;;2.60;99.90;;;;;;5050646;28;20667;-74
2022/04/03 07:03:04;;;;;;;12.30;8.33;;;2.60;99.90;;;;;;5051278;28;20623;-75
2022/04/03 07:05:31;;;;;;;12.20;7.33;;;2.60;99.90;;;;;;5050634;28;20254;-73
2022/04/03 07:07:58;;;;;;;11.77;7.57;;;2.70;99.90;;;;;;5051058;28;20316;-71
2022/04/03 07:10:26;;;;;;;11.93;6.87;;;2.70;99.90;;;;;;5050382;28;20236;-71
2022/04/03 07:12:55;;;;;;;12.67;8.93;;;2.80;99.90;;;;;;5050305;28;20256;-71
2022/04/03 07:15:22;;;;;;;14.67;9.77;;;2.70;99.90;;;;;;5050090;28;20256;-71
2022/04/03 07:17:49;;;;;;;22.17;11.87;;;2.70;99.90;;;;;;5050222;28;20210;-71
2022/04/03 07:20:15;;;;;;;15.83;10.90;;;2.80;99.90;;;;;;5050291;28;20256;-71
2022/04/03 07:22:43;;;;;;;14.67;10.20;;;2.90;99.90;;;;;;5050321;28;20308;-71
2022/04/03 07:25:10;;;;;;;15.07;8.70;;;2.90;99.90;;;;;;5050065;28;20240;-71
2022/04/03 07:27:39;;;;;;;11.67;7.87;;;3.00;99.90;;;;;;5050085;28;20683;-71
2022/04/03 07:30:08;;;;;;;12.50;8.40;;;3.00;99.90;;;;;;5049922;28;20215;-70
2022/04/03 07:32:35;;;;;;;11.07;7.70;;;3.00;99.90;;;;;;5048232;28;20244;-70
2022/04/03 07:35:03;;;;;;;11.23;7.33;;;3.10;99.90;;;;;;5049793;28;20202;-70
2022/04/03 07:37:30;;;;;;;9.63;7.20;;;3.10;99.90;;;;;;5049600;28;20300;-71
2022/04/03 07:39:58;;;;;;;9.13;6.97;;;3.10;99.90;;;;;;5049983;28;20226;-71
2022/04/03 07:42:25;;;;;;;7.67;6.23;;;3.10;99.90;;;;;;5050309;28;20543;-71
2022/04/03 07:44:53;;;;;;;8.10;6.03;;;3.00;99.90;;;;;;5050015;28;20270;-71
2022/04/03 07:47:20;;;;;;;8.63;6.67;;;3.00;99.90;;;;;;5049925;28;20237;-71
2022/04/03 07:49:47;;;;;;;7.93;6.07;;;3.00;99.90;;;;;;5050108;28;20308;-70
2022/04/03 07:52:15;;;;;;;6.43;5.43;;;3.00;99.90;;;;;;5049677;28;20240;-71
2022/04/03 07:54:41;;;;;;;7.33;5.77;;;3.00;99.90;;;;;;5049964;28;20570;-71
2022/04/03 07:57:10;;;;;;;9.87;6.30;;;2.90;99.90;;;;;;5049760;28;20899;-71
2022/04/03 07:59:37;;;;;;;7.90;5.57;;;3.00;99.90;;;;;;5049481;28;20292;-71
2022/04/03 08:02:06;;;;;;;7.60;5.57;;;3.00;99.90;;;;;;5049635;28;20236;-70
2022/04/03 08:04:33;;;;;;;5.63;4.60;;;3.10;99.90;;;;;;5049820;28;20287;-71
2022/04/03 08:06:59;;;;;;;6.40;4.90;;;3.20;99.90;;;;;;5049609;28;20244;-70
2022/04/03 08:09:26;;;;;;;11.13;6.50;;;3.20;99.90;;;;;;5049645;28;20260;-71
2022/04/03 08:11:53;;;;;;;9.57;6.70;;;3.30;99.90;;;;;;5049387;28;20294;-71
2022/04/03 08:14:20;;;;;;;10.63;6.37;;;3.30;99.90;;;;;;5049482;28;20676;-71
2022/04/03 08:16:47;;;;;;;8.93;6.20;;;3.30;99.90;;;;;;5049700;28;20205;-71
2022/04/03 08:19:16;;;;;;;8.57;6.87;;;3.40;99.90;;;;;;5049172;28;20307;-71
2022/04/03 08:21:43;;;;;;;9.70;6.90;;;3.40;99.90;;;;;;5049535;28;20257;-71
2022/04/03 08:24:10;;;;;;;9.10;6.27;;;3.50;99.90;;;;;;5049536;28;20344;-71
2022/04/03 08:26:37;;;;;;;8.87;6.13;;;3.50;99.90;;;;;;5049244;28;20259;-71
2022/04/03 08:29:04;;;;;;;8.47;5.80;;;3.50;99.90;;;;;;5048370;28;20660;-71
2022/04/03 08:31:32;;;;;;;7.73;5.10;;;3.50;99.90;;;;;;5049534;28;20258;-72
2022/04/03 08:33:59;;;;;;;6.57;5.00;;;3.40;99.90;;;;;;5049174;28;20262;-71
2022/04/03 08:36:27;;;;;;;5.60;4.77;;;3.30;99.90;;;;;;5049461;28;20620;-71
2022/04/03 08:38:56;;;;;;;8.77;5.50;;;3.30;99.90;;;;;;5049308;28;20226;-70
2022/04/03 08:41:23;;;;;;;4.30;3.37;;;3.40;99.90;;;;;;5049361;28;20205;-71
2022/04/03 08:43:50;;;;;;;4.80;3.80;;;3.20;99.90;;;;;;5049422;28;20231;-71
2022/04/03 08:46:17;;;;;;;4.77;4.03;;;3.20;99.90;;;;;;5049522;28;20295;-71
2022/04/03 08:48:46;;;;;;;4.07;3.47;;;3.10;99.90;;;;;;5049220;28;20225;-70
2022/04/03 08:51:13;;;;;;;5.07;3.90;;;3.20;99.90;;;;;;5049213;28;20321;-72
2022/04/03 08:53:45;;;;;;;4.80;4.00;;;3.20;99.90;;;;;;5049211;28;20213;-71
2022/04/03 08:56:12;;;;;;;6.50;4.67;;;3.20;99.90;;;;;;5049093;28;20251;-70
2022/04/03 08:58:39;;;;;;;7.57;5.10;;;3.30;99.90;;;;;;5048897;28;20241;-71
2022/04/03 09:01:06;;;;;;;6.37;5.07;;;3.40;99.90;;;;;;5049091;28;20292;-71
2022/04/03 09:03:33;;;;;;;6.27;5.03;;;3.40;99.90;;;;;;5048840;28;20241;-70
2022/04/03 09:06:14;;;;;;;7.17;3.83;;;3.50;99.90;;;;;;5048928;28;20240;-71
2022/04/03 09:08:42;;;;;;;6.43;4.83;;;3.50;99.90;;;;;;5048975;28;20312;-70
2022/04/03 09:11:10;;;;;;;5.57;4.40;;;3.40;99.90;;;;;;5048920;28;20209;-71
2022/04/03 09:13:38;;;;;;;5.30;4.30;;;3.40;99.90;;;;;;5048899;28;20248;-71
2022/04/03 09:16:06;;;;;;;5.57;4.00;;;3.40;99.90;;;;;;5048454;28;20244;-71
2022/04/03 09:18:44;;;;;;;3.53;3.20;;;3.50;99.90;;;;;;5048816;28;20305;-70
2022/04/03 09:21:22;;;;;;;4.33;3.50;;;3.60;99.90;;;;;;5048398;28;20291;-71
2022/04/03 09:24:04;;;;;;;4.63;3.50;;;3.60;99.90;;;;;;5049111;28;20205;-70
2022/04/03 09:26:33;;;;;;;4.47;3.30;;;3.60;99.90;;;;;;5049097;28;20569;-70
2022/04/03 09:29:07;;;;;;;3.47;2.90;;;3.80;99.90;;;;;;5048313;28;20229;-71
2022/04/03 09:31:35;;;;;;;3.80;3.23;;;3.90;99.90;;;;;;5049044;28;20205;-70
2022/04/03 09:34:02;;;;;;;4.13;3.47;;;4.00;99.90;;;;;;5049111;28;20209;-70
2022/04/03 09:36:32;;;;;;;3.83;3.40;;;4.10;99.90;;;;;;5049014;28;20723;-71
2022/04/03 09:39:09;;;;;;;5.40;4.17;;;4.20;99.90;;;;;;5049078;28;20237;-72
2022/04/03 09:41:55;;;;;;;5.80;4.67;;;4.30;99.90;;;;;;5051895;28;20639;-70
2022/04/03 09:44:29;;;;;;;6.20;4.80;;;4.30;99.90;;;;;;5052543;28;20193;-71
2022/04/03 09:47:21;;;;;;;5.90;4.03;;;4.30;99.90;;;;;;5052023;28;20635;-71
2022/04/03 09:49:54;;;;;;;4.20;3.73;;;4.30;99.90;;;;;;5051975;28;20210;-71
2022/04/03 09:52:40;;;;;;;4.70;4.03;;;4.30;99.90;;;;;;5052300;28;20347;-71
2022/04/03 09:55:15;;;;;;;5.37;3.90;;;4.20;99.90;;;;;;5051745;28;20197;-72
2022/04/03 09:57:42;;;;;;;4.30;3.50;;;4.10;99.90;;;;;;5051791;28;20280;-70
2022/04/03 10:00:10;;;;;;;4.17;3.30;;;4.10;99.90;;;;;;5051872;28;20229;-70
2022/04/03 10:02:37;;;;;;;4.00;2.80;;;4.20;99.90;;;;;;5051974;28;20254;-71
2022/04/03 10:05:06;;;;;;;5.90;3.07;;;4.40;99.90;;;;;;5051515;28;20296;-72
2022/04/03 10:07:34;;;;;;;4.30;3.03;;;4.50;99.90;;;;;;5051339;28;20209;-71
2022/04/03 10:10:02;;;;;;;3.70;3.30;;;4.50;99.90;;;;;;5051663;28;20563;-71
2022/04/03 10:12:31;;;;;;;5.77;3.40;;;4.50;99.90;;;;;;5052090;28;20209;-70
2022/04/03 10:14:59;;;;;;;4.87;3.60;;;4.20;99.90;;;;;;5051530;28;20673;-71
2022/04/03 10:17:27;;;;;;;4.97;3.60;;;4.10;99.90;;;;;;5051269;28;20241;-70
2022/04/03 10:19:54;;;;;;;5.90;3.57;;;3.90;99.90;;;;;;5051498;28;20221;-70
2022/04/03 10:22:29;;;;;;;3.47;3.17;;;3.90;99.90;;;;;;5051775;28;20216;-70
2022/04/03 10:24:59;;;;;;;5.07;3.90;;;3.80;99.90;;;;;;5051505;28;20735;-72
2022/04/03 10:27:34;;;;;;;4.27;3.07;;;3.70;99.90;;;;;;5051673;28;20288;-71
2022/04/03 10:30:01;;;;;;;4.03;3.00;;;3.70;99.90;;;;;;5051250;28;20248;-70
2022/04/03 10:32:30;;;;;;;3.47;2.97;;;3.70;99.90;;;;;;5051286;28;20619;-71
2022/04/03 10:34:59;;;;;;;4.13;3.30;;;3.70;99.90;;;;;;5050828;28;20301;-70
2022/04/03 10:37:28;;;;;;;3.70;3.07;;;3.90;99.90;;;;;;5051090;28;20241;-70
2022/04/03 10:39:55;;;;;;;4.03;3.20;;;3.90;99.90;;;;;;5051086;28;20427;-70
2022/04/03 10:42:29;;;;;;;4.17;3.30;;;4.00;99.90;;;;;;5050836;28;20241;-70
2022/04/03 10:45:24;;;;;;;4.33;3.17;;;4.10;99.90;;;;;;5050880;28;20388;-71
2022/04/03 10:47:52;;;;;;;4.77;3.30;;;4.00;99.90;;;;;;5050870;28;20194;-71
2022/04/03 10:50:20;;;;;;;5.93;3.83;;;3.90;99.90;;;;;;5050208;28;20755;-70
2022/04/03 10:52:56;;;;;;;5.03;3.77;;;3.90;99.90;;;;;;5050623;28;20209;-71
2022/04/03 10:55:26;;;;;;;4.13;3.27;;;3.80;99.90;;;;;;5050682;28;20296;-70
2022/04/03 10:57:54;;;;;;;5.63;3.37;;;3.70;99.90;;;;;;5050836;28;20196;-70
2022/04/03 11:00:34;;;;;;;5.47;3.50;;;3.70;99.90;;;;;;5050852;28;20552;-70
2022/04/03 11:03:22;;;;;;;4.47;3.40;;;3.70;99.90;;;;;;5050718;28;20374;-71
2022/04/03 11:05:51;;;;;;;5.17;3.80;;;3.50;99.90;;;;;;5050338;28;20293;-70
2022/04/03 11:08:20;;;;;;;3.77;2.80;;;3.40;99.90;;;;;;5050753;28;20205;-71
2022/04/03 11:10:49;;;;;;;5.60;3.53;;;3.30;99.90;;;;;;5049854;28;20226;-70
2022/04/03 11:13:17;;;;;;;5.23;3.43;;;3.40;99.90;;;;;;5050216;28;20205;-70
2022/04/03 11:15:51;;;;;;;4.83;3.23;;;3.50;99.90;;;;;;5050353;28;20237;-71
2022/04/03 11:18:29;;;;;;;4.37;3.40;;;3.50;99.90;;;;;;5050471;28;20228;-72
2022/04/03 11:21:19;;;;;;;4.93;3.23;;;3.50;99.90;;;;;;5050520;28;20254;-70
2022/04/03 11:23:52;;;;;;;5.67;4.10;;;3.50;99.90;;;;;;5046364;28;20209;-71
2022/04/03 11:26:20;;;;;;;5.87;3.60;;;3.50;99.90;;;;;;5050575;28;20571;-71
2022/04/03 11:28:47;;;;;;;5.63;3.50;;;3.60;99.90;;;;;;5050500;28;20258;-68
2022/04/03 11:31:16;;;;;;;5.33;3.90;;;3.40;99.90;;;;;;5050370;28;20296;-69
2022/04/03 11:33:43;;;;;;;4.47;3.50;;;3.30;99.90;;;;;;5050286;28;20232;-69
2022/04/03 11:36:13;;;;;;;3.20;2.90;;;3.20;99.90;;;;;;5050636;28;20241;-69
2022/04/03 11:38:42;;;;;;;4.90;3.53;;;3.20;99.90;;;;;;5049731;28;20242;-69
2022/04/03 11:41:12;;;;;;;3.63;2.80;;;3.30;99.90;;;;;;5050111;28;20290;-69
2022/04/03 11:43:40;;;;;;;3.77;3.20;;;3.30;99.90;;;;;;5050310;28;20662;-70
2022/04/03 11:46:08;;;;;;;3.27;2.80;;;3.40;99.90;;;;;;5050093;28;20285;-69
2022/04/03 11:48:43;;;;;;;3.87;3.23;;;3.40;99.90;;;;;;5049927;28;20254;-69
2022/04/03 11:51:12;;;;;;;4.80;3.37;;;3.40;99.90;;;;;;5050030;28;20209;-68
2022/04/03 11:53:41;;;;;;;4.90;3.53;;;3.40;99.90;;;;;;5049553;28;20211;-70
2022/04/03 11:56:11;;;;;;;5.23;3.37;;;3.40;99.90;;;;;;5049846;28;20302;-70
2022/04/03 11:58:39;;;;;;;3.47;3.17;;;3.50;99.90;;;;;;5049672;28;20205;-70
2022/04/03 12:01:07;;;;;;;3.10;2.70;;;3.50;99.90;;;;;;5050180;28;20559;-69
2022/04/03 12:03:37;;;;;;;2.83;2.53;;;3.30;99.90;;;;;;5049531;28;20693;-69
2022/04/03 12:06:17;;;;;;;3.63;2.70;;;3.30;99.90;;;;;;5049570;28;20234;-69
2022/04/03 12:08:46;;;;;;;3.20;2.80;;;3.20;99.90;;;;;;5049263;28;20292;-69
2022/04/03 12:11:26;;;;;;;3.80;3.23;;;3.10;99.90;;;;;;5049206;28;20316;-69
2022/04/03 12:13:55;;;;;;;4.40;3.33;;;3.00;99.90;;;;;;5049323;28;20254;-68
2022/04/03 12:16:24;;;;;;;3.97;3.17;;;3.00;99.90;;;;;;5049752;28;20564;-68
2022/04/03 12:18:57;;;;;;;6.33;4.17;;;3.00;99.90;;;;;;5049344;28;21135;-68
2022/04/03 12:21:37;;;;;;;5.60;4.07;;;2.90;99.90;;;;;;5049802;28;20241;-70
2022/04/03 12:24:05;;;;;;;5.23;3.80;;;2.70;99.90;;;;;;5049893;28;20194;-68
2022/04/03 12:26:33;;;;;;;3.43;3.00;;;2.60;99.90;;;;;;5049206;28;20720;-70
2022/04/03 12:29:00;;;;;;;4.07;3.33;;;2.60;99.90;;;;;;5049480;28;20711;-68
2022/04/03 12:31:28;;;;;;;5.20;3.57;;;2.50;99.90;;;;;;5049377;28;20593;-69
2022/04/03 12:34:11;;;;;;;3.43;3.00;;;2.50;99.90;;;;;;5049094;28;20233;-68
2022/04/03 12:36:43;;;;;;;4.30;3.33;;;2.60;99.90;;;;;;5049188;28;20193;-69
2022/04/03 12:39:37;;;;;;;4.10;3.20;;;2.70;99.90;;;;;;5048808;28;20236;-68
2022/04/03 12:42:19;;;;;;;4.07;3.53;;;2.70;99.90;;;;;;5049268;28;20276;-68
2022/04/03 12:44:51;;;;;;;3.90;3.17;;;2.70;99.90;;;;;;5048947;28;20600;-68
2022/04/03 12:47:20;;;;;;;4.50;3.53;;;2.70;99.90;;;;;;5048924;28;20233;-68
2022/04/03 12:49:50;;;;;;;5.00;3.93;;;2.60;99.90;;;;;;5048859;28;20491;-70
2022/04/03 12:52:36;;;;;;;4.90;4.00;;;2.50;99.90;;;;;;5049110;28;20581;-68
2022/04/03 12:55:03;;;;;;;5.13;3.60;;;2.60;99.90;;;;;;5048761;28;20235;-70
2022/04/03 13:00:17;;;;;;;4.57;3.83;;;2.70;99.90;;;;;;5048909;28;20549;-70
2022/04/03 13:02:45;;;;;;;4.50;3.80;;;2.60;99.90;;;;;;5048822;28;20233;-70